sensor_id;sensor_type;location;lat;lon;timestamp;P1;durP1;ratioP1;P2;durP2;ratioP2
39540;SDS011;25219;52.244;21.006;2023-07-24T00:02:15;9.23;;;4.60;;
39540;SDS011;25219;52.244;21.006;2023-07-24T00:04:40;6.60;;;4.03;;
39540;SDS011;25219;52.244;21.006;2023-07-24T00:07:05;9.98;;;3.95;;
39540;SDS011;25219;52.244;21.006;2023-07-24T00:09:30;8.10;;;4.07;;
39540;SDS011;25219;52.244;21.006;2023-07-24T00:11:56;8.33;;;4.13;;
39540;SDS011;25219;52.244;21.006;2023-07-24T00:14:21;5.57;;;3.80;;
39540;SDS011;25219;52.244;21.006;2023-07-24T00:16:46;6.30;;;3.70;;
39540;SDS011;25219;52.244;21.006;2023-07-24T00:19:11;8.25;;;4.20;;
39540;SDS011;25219;52.244;21.006;2023-07-24T00:21:36;6.97;;;4.00;;
39540;SDS011;25219;52.244;21.006;2023-07-24T00:24:02;5.88;;;4.18;;
39540;SDS011;25219;52.244;21.006;2023-07-24T00:26:27;7.20;;;4.23;;
39540;SDS011;25219;52.244;21.006;2023-07-24T00:28:52;9.07;;;3.72;;
39540;SDS011;25219;52.244;21.006;2023-07-24T00:31:17;7.60;;;4.20;;
39540;SDS011;25219;52.244;21.006;2023-07-24T00:33:42;9.17;;;4.40;;
39540;SDS011;25219;52.244;21.006;2023-07-24T00:36:07;5.67;;;3.80;;
39540;SDS011;25219;52.244;21.006;2023-07-24T00:38:32;8.67;;;4.50;;
39540;SDS011;25219;52.244;21.006;2023-07-24T00:40:58;6.23;;;3.57;;
39540;SDS011;25219;52.244;21.006;2023-07-24T00:43:23;7.80;;;4.03;;
39540;SDS011;25219;52.244;21.006;2023-07-24T00:45:48;6.07;;;4.23;;
39540;SDS011;25219;52.244;21.006;2023-07-24T00:48:13;8.37;;;3.90;;
39540;SDS011;25219;52.244;21.006;2023-07-24T00:50:39;6.78;;;4.28;;
39540;SDS011;25219;52.244;21.006;2023-07-24T00:53:04;5.87;;;4.50;;
39540;SDS011;25219;52.244;21.006;2023-07-24T00:55:29;6.82;;;4.05;;
39540;SDS011;25219;52.244;21.006;2023-07-24T00:57:56;11.57;;;4.40;;
39540;SDS011;25219;52.244;21.006;2023-07-24T01:00:22;6.93;;;3.83;;
39540;SDS011;25219;52.244;21.006;2023-07-24T01:02:47;6.43;;;4.07;;
39540;SDS011;25219;52.244;21.006;2023-07-24T01:05:13;7.45;;;4.18;;
39540;SDS011;25219;52.244;21.006;2023-07-24T01:07:39;8.73;;;4.75;;
39540;SDS011;25219;52.244;21.006;2023-07-24T01:10:05;7.53;;;4.53;;
39540;SDS011;25219;52.244;21.006;2023-07-24T01:12:35;9.50;;;3.75;;
39540;SDS011;25219;52.244;21.006;2023-07-24T01:15:03;6.57;;;3.92;;
39540;SDS011;25219;52.244;21.006;2023-07-24T01:17:31;6.93;;;3.77;;
39540;SDS011;25219;52.244;21.006;2023-07-24T01:19:58;9.45;;;3.70;;
39540;SDS011;25219;52.244;21.006;2023-07-24T01:27:26;9.95;;;3.65;;
39540;SDS011;25219;52.244;21.006;2023-07-24T01:29:51;4.78;;;3.53;;
39540;SDS011;25219;52.244;21.006;2023-07-24T01:32:17;10.97;;;3.70;;
39540;SDS011;25219;52.244;21.006;2023-07-24T01:34:43;6.30;;;3.85;;
39540;SDS011;25219;52.244;21.006;2023-07-24T01:37:08;5.53;;;3.77;;
39540;SDS011;25219;52.244;21.006;2023-07-24T01:39:34;6.03;;;3.60;;
39540;SDS011;25219;52.244;21.006;2023-07-24T01:41:59;4.75;;;3.42;;
39540;SDS011;25219;52.244;21.006;2023-07-24T01:44:25;5.27;;;3.50;;
39540;SDS011;25219;52.244;21.006;2023-07-24T01:46:50;7.10;;;3.30;;
39540;SDS011;25219;52.244;21.006;2023-07-24T01:49:15;5.13;;;3.73;;
39540;SDS011;25219;52.244;21.006;2023-07-24T01:51:40;6.75;;;3.55;;
39540;SDS011;25219;52.244;21.006;2023-07-24T01:54:05;9.35;;;3.78;;
39540;SDS011;25219;52.244;21.006;2023-07-24T01:56:30;7.25;;;3.38;;
39540;SDS011;25219;52.244;21.006;2023-07-24T01:58:55;9.43;;;3.75;;
39540;SDS011;25219;52.244;21.006;2023-07-24T02:01:21;6.80;;;3.20;;
39540;SDS011;25219;52.244;21.006;2023-07-24T02:03:46;5.68;;;3.38;;
39540;SDS011;25219;52.244;21.006;2023-07-24T02:06:11;7.28;;;3.42;;
39540;SDS011;25219;52.244;21.006;2023-07-24T02:08:36;5.40;;;2.80;;
39540;SDS011;25219;52.244;21.006;2023-07-24T02:11:01;7.87;;;3.23;;
39540;SDS011;25219;52.244;21.006;2023-07-24T02:13:26;5.70;;;3.28;;
39540;SDS011;25219;52.244;21.006;2023-07-24T02:15:51;5.07;;;3.17;;
39540;SDS011;25219;52.244;21.006;2023-07-24T02:18:18;5.72;;;3.20;;
39540;SDS011;25219;52.244;21.006;2023-07-24T02:20:48;7.83;;;2.83;;
39540;SDS011;25219;52.244;21.006;2023-07-24T02:23:13;9.50;;;3.65;;
39540;SDS011;25219;52.244;21.006;2023-07-24T02:25:38;6.68;;;2.80;;
39540;SDS011;25219;52.244;21.006;2023-07-24T02:28:03;3.75;;;2.63;;
39540;SDS011;25219;52.244;21.006;2023-07-24T02:30:28;10.00;;;3.22;;
39540;SDS011;25219;52.244;21.006;2023-07-24T02:32:54;6.60;;;3.40;;
39540;SDS011;25219;52.244;21.006;2023-07-24T02:35:21;5.22;;;2.60;;
39540;SDS011;25219;52.244;21.006;2023-07-24T02:37:46;4.23;;;2.80;;
39540;SDS011;25219;52.244;21.006;2023-07-24T02:40:11;4.40;;;2.72;;
39540;SDS011;25219;52.244;21.006;2023-07-24T02:42:36;3.83;;;3.00;;
39540;SDS011;25219;52.244;21.006;2023-07-24T02:45:01;4.40;;;2.95;;
39540;SDS011;25219;52.244;21.006;2023-07-24T02:47:27;5.47;;;2.63;;
39540;SDS011;25219;52.244;21.006;2023-07-24T02:49:52;5.80;;;2.87;;
39540;SDS011;25219;52.244;21.006;2023-07-24T02:52:17;5.53;;;2.92;;
39540;SDS011;25219;52.244;21.006;2023-07-24T02:54:42;4.67;;;2.97;;
39540;SDS011;25219;52.244;21.006;2023-07-24T02:57:07;6.30;;;3.10;;
39540;SDS011;25219;52.244;21.006;2023-07-24T02:59:33;9.20;;;2.65;;
39540;SDS011;25219;52.244;21.006;2023-07-24T03:01:59;6.78;;;4.45;;
39540;SDS011;25219;52.244;21.006;2023-07-24T03:04:24;4.67;;;2.90;;
39540;SDS011;25219;52.244;21.006;2023-07-24T03:06:50;7.43;;;3.13;;
39540;SDS011;25219;52.244;21.006;2023-07-24T03:09:15;4.43;;;2.85;;
39540;SDS011;25219;52.244;21.006;2023-07-24T03:11:41;5.10;;;3.33;;
39540;SDS011;25219;52.244;21.006;2023-07-24T03:14:06;5.37;;;2.97;;
39540;SDS011;25219;52.244;21.006;2023-07-24T03:16:31;5.67;;;3.17;;
39540;SDS011;25219;52.244;21.006;2023-07-24T03:18:57;6.63;;;3.37;;
39540;SDS011;25219;52.244;21.006;2023-07-24T03:21:22;5.68;;;3.38;;
39540;SDS011;25219;52.244;21.006;2023-07-24T03:23:47;7.23;;;2.90;;
39540;SDS011;25219;52.244;21.006;2023-07-24T03:26:12;13.68;;;3.30;;
39540;SDS011;25219;52.244;21.006;2023-07-24T03:28:37;5.47;;;3.30;;
39540;SDS011;25219;52.244;21.006;2023-07-24T03:31:02;6.68;;;3.15;;
39540;SDS011;25219;52.244;21.006;2023-07-24T03:33:28;7.77;;;3.47;;
39540;SDS011;25219;52.244;21.006;2023-07-24T03:35:53;6.63;;;3.55;;
39540;SDS011;25219;52.244;21.006;2023-07-24T03:38:18;4.23;;;2.80;;
39540;SDS011;25219;52.244;21.006;2023-07-24T03:40:43;4.80;;;2.70;;
39540;SDS011;25219;52.244;21.006;2023-07-24T03:43:09;6.13;;;3.10;;
39540;SDS011;25219;52.244;21.006;2023-07-24T03:45:34;5.27;;;3.00;;
39540;SDS011;25219;52.244;21.006;2023-07-24T03:47:59;4.77;;;3.00;;
39540;SDS011;25219;52.244;21.006;2023-07-24T03:50:24;4.03;;;3.00;;
39540;SDS011;25219;52.244;21.006;2023-07-24T03:52:49;3.83;;;2.50;;
39540;SDS011;25219;52.244;21.006;2023-07-24T03:55:14;6.57;;;2.60;;
39540;SDS011;25219;52.244;21.006;2023-07-24T03:57:40;4.70;;;2.67;;
39540;SDS011;25219;52.244;21.006;2023-07-24T04:00:05;7.10;;;2.40;;
39540;SDS011;25219;52.244;21.006;2023-07-24T04:02:30;8.32;;;2.28;;
39540;SDS011;25219;52.244;21.006;2023-07-24T04:04:55;6.70;;;2.53;;
39540;SDS011;25219;52.244;21.006;2023-07-24T04:07:21;4.47;;;2.47;;
39540;SDS011;25219;52.244;21.006;2023-07-24T04:09:46;4.07;;;2.45;;
39540;SDS011;25219;52.244;21.006;2023-07-24T04:12:11;4.57;;;2.47;;
39540;SDS011;25219;52.244;21.006;2023-07-24T04:14:36;5.23;;;2.73;;
39540;SDS011;25219;52.244;21.006;2023-07-24T04:17:01;4.63;;;2.83;;
39540;SDS011;25219;52.244;21.006;2023-07-24T04:19:26;4.33;;;2.80;;
39540;SDS011;25219;52.244;21.006;2023-07-24T04:21:51;4.63;;;3.00;;
39540;SDS011;25219;52.244;21.006;2023-07-24T04:24:17;6.20;;;3.03;;
39540;SDS011;25219;52.244;21.006;2023-07-24T04:26:42;4.70;;;2.30;;
39540;SDS011;25219;52.244;21.006;2023-07-24T04:29:07;3.67;;;2.47;;
39540;SDS011;25219;52.244;21.006;2023-07-24T04:31:32;5.30;;;2.70;;
39540;SDS011;25219;52.244;21.006;2023-07-24T04:33:58;4.70;;;2.17;;
39540;SDS011;25219;52.244;21.006;2023-07-24T04:36:23;6.70;;;2.57;;
39540;SDS011;25219;52.244;21.006;2023-07-24T04:38:48;3.47;;;2.60;;
39540;SDS011;25219;52.244;21.006;2023-07-24T04:41:13;7.23;;;2.60;;
39540;SDS011;25219;52.244;21.006;2023-07-24T04:43:38;4.65;;;2.58;;
39540;SDS011;25219;52.244;21.006;2023-07-24T04:46:04;6.93;;;2.40;;
39540;SDS011;25219;52.244;21.006;2023-07-24T04:48:29;5.43;;;2.60;;
39540;SDS011;25219;52.244;21.006;2023-07-24T04:50:54;4.67;;;2.50;;
39540;SDS011;25219;52.244;21.006;2023-07-24T04:53:20;4.53;;;2.53;;
39540;SDS011;25219;52.244;21.006;2023-07-24T04:55:45;3.87;;;2.30;;
39540;SDS011;25219;52.244;21.006;2023-07-24T04:58:10;5.03;;;2.63;;
39540;SDS011;25219;52.244;21.006;2023-07-24T05:00:35;4.53;;;2.37;;
39540;SDS011;25219;52.244;21.006;2023-07-24T05:03:01;7.40;;;2.50;;
39540;SDS011;25219;52.244;21.006;2023-07-24T05:05:26;6.47;;;3.30;;
39540;SDS011;25219;52.244;21.006;2023-07-24T05:07:51;4.73;;;2.70;;
39540;SDS011;25219;52.244;21.006;2023-07-24T05:10:16;6.47;;;2.97;;
39540;SDS011;25219;52.244;21.006;2023-07-24T05:12:41;4.30;;;2.92;;
39540;SDS011;25219;52.244;21.006;2023-07-24T05:15:07;7.47;;;2.80;;
39540;SDS011;25219;52.244;21.006;2023-07-24T05:17:32;7.60;;;2.75;;
39540;SDS011;25219;52.244;21.006;2023-07-24T05:19:58;4.93;;;2.63;;
39540;SDS011;25219;52.244;21.006;2023-07-24T05:22:23;6.43;;;2.50;;
39540;SDS011;25219;52.244;21.006;2023-07-24T05:24:48;6.32;;;2.28;;
39540;SDS011;25219;52.244;21.006;2023-07-24T05:27:13;3.75;;;2.50;;
39540;SDS011;25219;52.244;21.006;2023-07-24T05:29:40;3.92;;;2.50;;
39540;SDS011;25219;52.244;21.006;2023-07-24T05:32:06;6.30;;;2.53;;
39540;SDS011;25219;52.244;21.006;2023-07-24T05:34:31;6.10;;;2.73;;
39540;SDS011;25219;52.244;21.006;2023-07-24T05:36:56;5.07;;;2.20;;
39540;SDS011;25219;52.244;21.006;2023-07-24T05:39:21;3.42;;;2.58;;
39540;SDS011;25219;52.244;21.006;2023-07-24T05:41:47;7.25;;;2.65;;
39540;SDS011;25219;52.244;21.006;2023-07-24T05:44:12;6.80;;;2.63;;
39540;SDS011;25219;52.244;21.006;2023-07-24T05:46:37;3.88;;;2.47;;
39540;SDS011;25219;52.244;21.006;2023-07-24T05:49:02;5.83;;;3.03;;
39540;SDS011;25219;52.244;21.006;2023-07-24T05:51:27;6.45;;;2.70;;
39540;SDS011;25219;52.244;21.006;2023-07-24T05:53:53;8.50;;;2.60;;
39540;SDS011;25219;52.244;21.006;2023-07-24T05:56:18;12.27;;;3.17;;
39540;SDS011;25219;52.244;21.006;2023-07-24T05:58:43;7.07;;;2.45;;
39540;SDS011;25219;52.244;21.006;2023-07-24T06:01:08;9.30;;;2.50;;
39540;SDS011;25219;52.244;21.006;2023-07-24T06:03:35;3.08;;;2.55;;
39540;SDS011;25219;52.244;21.006;2023-07-24T06:06:00;7.07;;;2.83;;
39540;SDS011;25219;52.244;21.006;2023-07-24T06:08:26;6.53;;;2.67;;
39540;SDS011;25219;52.244;21.006;2023-07-24T06:10:51;5.32;;;2.88;;
39540;SDS011;25219;52.244;21.006;2023-07-24T06:13:17;6.27;;;3.20;;
39540;SDS011;25219;52.244;21.006;2023-07-24T06:15:42;7.28;;;2.78;;
39540;SDS011;25219;52.244;21.006;2023-07-24T06:18:07;4.75;;;2.55;;
39540;SDS011;25219;52.244;21.006;2023-07-24T06:20:32;4.37;;;2.83;;
39540;SDS011;25219;52.244;21.006;2023-07-24T06:22:58;5.80;;;3.65;;
39540;SDS011;25219;52.244;21.006;2023-07-24T06:25:23;4.03;;;3.07;;
39540;SDS011;25219;52.244;21.006;2023-07-24T06:27:48;3.33;;;2.50;;
39540;SDS011;25219;52.244;21.006;2023-07-24T06:30:13;4.60;;;2.37;;
39540;SDS011;25219;52.244;21.006;2023-07-24T06:32:38;7.07;;;3.87;;
39540;SDS011;25219;52.244;21.006;2023-07-24T06:35:03;4.17;;;2.93;;
39540;SDS011;25219;52.244;21.006;2023-07-24T06:37:29;4.15;;;2.80;;
39540;SDS011;25219;52.244;21.006;2023-07-24T06:39:54;3.03;;;2.63;;
39540;SDS011;25219;52.244;21.006;2023-07-24T06:42:19;9.57;;;3.00;;
39540;SDS011;25219;52.244;21.006;2023-07-24T06:44:44;5.80;;;2.43;;
39540;SDS011;25219;52.244;21.006;2023-07-24T06:47:09;8.13;;;2.73;;
39540;SDS011;25219;52.244;21.006;2023-07-24T06:49:35;4.47;;;2.58;;
39540;SDS011;25219;52.244;21.006;2023-07-24T06:52:00;6.75;;;2.83;;
39540;SDS011;25219;52.244;21.006;2023-07-24T06:54:25;5.43;;;2.73;;
39540;SDS011;25219;52.244;21.006;2023-07-24T06:56:51;7.57;;;2.73;;
39540;SDS011;25219;52.244;21.006;2023-07-24T06:59:16;4.85;;;2.75;;
39540;SDS011;25219;52.244;21.006;2023-07-24T07:01:41;5.82;;;3.10;;
39540;SDS011;25219;52.244;21.006;2023-07-24T07:04:06;9.32;;;2.55;;
39540;SDS011;25219;52.244;21.006;2023-07-24T07:06:31;4.78;;;2.53;;
39540;SDS011;25219;52.244;21.006;2023-07-24T07:08:56;4.80;;;2.38;;
39540;SDS011;25219;52.244;21.006;2023-07-24T07:11:21;4.67;;;2.60;;
39540;SDS011;25219;52.244;21.006;2023-07-24T07:13:47;5.07;;;2.70;;
39540;SDS011;25219;52.244;21.006;2023-07-24T07:16:12;5.97;;;2.90;;
39540;SDS011;25219;52.244;21.006;2023-07-24T07:18:37;7.17;;;2.43;;
39540;SDS011;25219;52.244;21.006;2023-07-24T07:21:02;8.48;;;2.60;;
39540;SDS011;25219;52.244;21.006;2023-07-24T07:23:27;4.57;;;2.50;;
39540;SDS011;25219;52.244;21.006;2023-07-24T07:25:52;4.30;;;2.50;;
39540;SDS011;25219;52.244;21.006;2023-07-24T07:28:17;6.97;;;2.58;;
39540;SDS011;25219;52.244;21.006;2023-07-24T07:30:43;5.03;;;2.70;;
39540;SDS011;25219;52.244;21.006;2023-07-24T07:33:09;8.60;;;2.78;;
39540;SDS011;25219;52.244;21.006;2023-07-24T07:35:34;5.20;;;3.13;;
39540;SDS011;25219;52.244;21.006;2023-07-24T07:38:00;5.63;;;2.75;;
39540;SDS011;25219;52.244;21.006;2023-07-24T07:40:25;6.40;;;2.42;;
39540;SDS011;25219;52.244;21.006;2023-07-24T07:42:52;5.18;;;2.60;;
39540;SDS011;25219;52.244;21.006;2023-07-24T07:45:17;5.33;;;2.40;;
39540;SDS011;25219;52.244;21.006;2023-07-24T07:47:42;2.60;;;2.38;;
39540;SDS011;25219;52.244;21.006;2023-07-24T07:50:07;3.80;;;2.40;;
39540;SDS011;25219;52.244;21.006;2023-07-24T07:52:32;4.28;;;2.35;;
39540;SDS011;25219;52.244;21.006;2023-07-24T07:54:57;5.43;;;2.58;;
39540;SDS011;25219;52.244;21.006;2023-07-24T07:57:23;5.00;;;2.67;;
39540;SDS011;25219;52.244;21.006;2023-07-24T07:59:48;6.45;;;2.53;;
39540;SDS011;25219;52.244;21.006;2023-07-24T08:02:13;7.57;;;2.67;;
39540;SDS011;25219;52.244;21.006;2023-07-24T08:04:38;4.83;;;2.40;;
39540;SDS011;25219;52.244;21.006;2023-07-24T08:07:03;8.20;;;2.37;;
39540;SDS011;25219;52.244;21.006;2023-07-24T08:09:29;3.60;;;2.38;;
39540;SDS011;25219;52.244;21.006;2023-07-24T08:11:54;3.83;;;2.70;;
39540;SDS011;25219;52.244;21.006;2023-07-24T08:14:19;3.23;;;2.03;;
39540;SDS011;25219;52.244;21.006;2023-07-24T08:16:44;3.33;;;2.25;;
39540;SDS011;25219;52.244;21.006;2023-07-24T08:19:12;10.18;;;2.80;;
39540;SDS011;25219;52.244;21.006;2023-07-24T08:21:37;4.30;;;2.38;;
39540;SDS011;25219;52.244;21.006;2023-07-24T08:24:04;11.95;;;2.30;;
39540;SDS011;25219;52.244;21.006;2023-07-24T08:26:29;5.00;;;2.10;;
39540;SDS011;25219;52.244;21.006;2023-07-24T08:28:54;6.22;;;2.22;;
39540;SDS011;25219;52.244;21.006;2023-07-24T08:31:19;4.55;;;2.40;;
39540;SDS011;25219;52.244;21.006;2023-07-24T08:33:45;4.93;;;2.30;;
39540;SDS011;25219;52.244;21.006;2023-07-24T08:36:10;4.70;;;2.37;;
39540;SDS011;25219;52.244;21.006;2023-07-24T08:38:37;5.45;;;2.72;;
39540;SDS011;25219;52.244;21.006;2023-07-24T08:41:06;4.83;;;2.23;;
39540;SDS011;25219;52.244;21.006;2023-07-24T08:43:31;6.82;;;2.40;;
39540;SDS011;25219;52.244;21.006;2023-07-24T08:45:57;5.55;;;2.40;;
39540;SDS011;25219;52.244;21.006;2023-07-24T08:48:22;3.08;;;2.35;;
39540;SDS011;25219;52.244;21.006;2023-07-24T08:50:48;6.70;;;2.63;;
39540;SDS011;25219;52.244;21.006;2023-07-24T08:53:15;4.82;;;2.20;;
39540;SDS011;25219;52.244;21.006;2023-07-24T08:55:40;7.70;;;2.57;;
39540;SDS011;25219;52.244;21.006;2023-07-24T08:58:05;6.97;;;2.58;;
39540;SDS011;25219;52.244;21.006;2023-07-24T09:00:32;4.80;;;2.72;;
39540;SDS011;25219;52.244;21.006;2023-07-24T09:02:57;3.03;;;2.20;;
39540;SDS011;25219;52.244;21.006;2023-07-24T09:05:22;10.57;;;2.87;;
39540;SDS011;25219;52.244;21.006;2023-07-24T09:07:47;4.47;;;2.37;;
39540;SDS011;25219;52.244;21.006;2023-07-24T09:10:13;4.73;;;3.00;;
39540;SDS011;25219;52.244;21.006;2023-07-24T09:12:38;3.47;;;2.42;;
39540;SDS011;25219;52.244;21.006;2023-07-24T09:15:04;4.07;;;2.30;;
39540;SDS011;25219;52.244;21.006;2023-07-24T09:17:29;3.65;;;2.28;;
39540;SDS011;25219;52.244;21.006;2023-07-24T09:19:55;3.50;;;2.47;;
39540;SDS011;25219;52.244;21.006;2023-07-24T09:22:20;4.25;;;2.08;;
39540;SDS011;25219;52.244;21.006;2023-07-24T09:24:52;4.67;;;2.50;;
39540;SDS011;25219;52.244;21.006;2023-07-24T09:27:18;4.65;;;2.50;;
39540;SDS011;25219;52.244;21.006;2023-07-24T09:29:43;4.90;;;2.07;;
39540;SDS011;25219;52.244;21.006;2023-07-24T09:32:18;5.25;;;2.30;;
39540;SDS011;25219;52.244;21.006;2023-07-24T09:34:43;4.10;;;2.80;;
39540;SDS011;25219;52.244;21.006;2023-07-24T09:37:08;7.23;;;2.20;;
39540;SDS011;25219;52.244;21.006;2023-07-24T09:39:33;2.92;;;2.40;;
39540;SDS011;25219;52.244;21.006;2023-07-24T09:42:04;3.85;;;2.00;;
39540;SDS011;25219;52.244;21.006;2023-07-24T09:44:31;5.22;;;2.47;;
39540;SDS011;25219;52.244;21.006;2023-07-24T09:46:56;9.55;;;2.38;;
39540;SDS011;25219;52.244;21.006;2023-07-24T09:49:21;2.87;;;2.13;;
39540;SDS011;25219;52.244;21.006;2023-07-24T09:51:47;3.63;;;2.17;;
39540;SDS011;25219;52.244;21.006;2023-07-24T09:54:15;2.67;;;1.98;;
39540;SDS011;25219;52.244;21.006;2023-07-24T09:56:43;4.13;;;2.67;;
39540;SDS011;25219;52.244;21.006;2023-07-24T09:59:08;5.43;;;2.15;;
39540;SDS011;25219;52.244;21.006;2023-07-24T10:01:34;3.22;;;2.60;;
39540;SDS011;25219;52.244;21.006;2023-07-24T10:03:59;4.38;;;2.70;;
39540;SDS011;25219;52.244;21.006;2023-07-24T10:06:26;4.25;;;2.30;;
39540;SDS011;25219;52.244;21.006;2023-07-24T10:08:51;5.15;;;2.67;;
39540;SDS011;25219;52.244;21.006;2023-07-24T10:11:17;3.30;;;2.08;;
39540;SDS011;25219;52.244;21.006;2023-07-24T10:13:42;4.05;;;2.40;;
39540;SDS011;25219;52.244;21.006;2023-07-24T10:16:08;3.43;;;2.33;;
39540;SDS011;25219;52.244;21.006;2023-07-24T10:18:34;4.32;;;3.03;;
39540;SDS011;25219;52.244;21.006;2023-07-24T10:21:00;6.78;;;2.30;;
39540;SDS011;25219;52.244;21.006;2023-07-24T10:23:26;4.30;;;2.50;;
39540;SDS011;25219;52.244;21.006;2023-07-24T10:25:51;3.80;;;2.35;;
39540;SDS011;25219;52.244;21.006;2023-07-24T10:28:17;3.50;;;2.17;;
39540;SDS011;25219;52.244;21.006;2023-07-24T10:30:43;6.13;;;2.58;;
39540;SDS011;25219;52.244;21.006;2023-07-24T10:33:09;6.47;;;2.22;;
39540;SDS011;25219;52.244;21.006;2023-07-24T10:38:03;6.22;;;2.70;;
39540;SDS011;25219;52.244;21.006;2023-07-24T10:40:28;9.07;;;3.40;;
39540;SDS011;25219;52.244;21.006;2023-07-24T10:43:13;4.13;;;3.00;;
39540;SDS011;25219;52.244;21.006;2023-07-24T10:45:42;4.22;;;2.70;;
39540;SDS011;25219;52.244;21.006;2023-07-24T10:48:07;4.57;;;2.55;;
39540;SDS011;25219;52.244;21.006;2023-07-24T10:50:39;5.57;;;3.57;;
39540;SDS011;25219;52.244;21.006;2023-07-24T10:53:04;3.22;;;2.45;;
39540;SDS011;25219;52.244;21.006;2023-07-24T10:55:29;3.07;;;2.50;;
39540;SDS011;25219;52.244;21.006;2023-07-24T10:57:54;4.07;;;2.63;;
39540;SDS011;25219;52.244;21.006;2023-07-24T11:00:20;4.85;;;2.55;;
39540;SDS011;25219;52.244;21.006;2023-07-24T11:02:45;7.57;;;2.73;;
39540;SDS011;25219;52.244;21.006;2023-07-24T11:05:10;6.13;;;2.90;;
39540;SDS011;25219;52.244;21.006;2023-07-24T11:07:37;7.60;;;2.28;;
39540;SDS011;25219;52.244;21.006;2023-07-24T11:10:02;3.15;;;2.10;;
39540;SDS011;25219;52.244;21.006;2023-07-24T11:12:27;7.03;;;2.40;;
39540;SDS011;25219;52.244;21.006;2023-07-24T11:14:55;3.42;;;2.85;;
39540;SDS011;25219;52.244;21.006;2023-07-24T11:17:21;6.40;;;2.73;;
39540;SDS011;25219;52.244;21.006;2023-07-24T11:19:46;5.72;;;2.80;;
39540;SDS011;25219;52.244;21.006;2023-07-24T11:22:11;7.00;;;2.80;;
39540;SDS011;25219;52.244;21.006;2023-07-24T11:24:44;6.45;;;3.03;;
39540;SDS011;25219;52.244;21.006;2023-07-24T11:27:12;4.63;;;2.65;;
39540;SDS011;25219;52.244;21.006;2023-07-24T11:29:38;4.93;;;2.90;;
39540;SDS011;25219;52.244;21.006;2023-07-24T11:32:04;7.23;;;2.97;;
39540;SDS011;25219;52.244;21.006;2023-07-24T11:34:29;4.40;;;2.83;;
39540;SDS011;25219;52.244;21.006;2023-07-24T11:36:54;4.87;;;2.53;;
39540;SDS011;25219;52.244;21.006;2023-07-24T11:39:23;3.22;;;2.38;;
39540;SDS011;25219;52.244;21.006;2023-07-24T11:41:48;3.40;;;2.75;;
39540;SDS011;25219;52.244;21.006;2023-07-24T11:44:14;25.43;;;4.30;;
39540;SDS011;25219;52.244;21.006;2023-07-24T11:46:41;8.68;;;3.00;;
39540;SDS011;25219;52.244;21.006;2023-07-24T11:49:07;6.88;;;2.92;;
39540;SDS011;25219;52.244;21.006;2023-07-24T11:51:32;5.33;;;2.87;;
39540;SDS011;25219;52.244;21.006;2023-07-24T11:54:05;11.73;;;3.10;;
39540;SDS011;25219;52.244;21.006;2023-07-24T11:56:32;7.88;;;3.25;;
39540;SDS011;25219;52.244;21.006;2023-07-24T11:58:57;5.63;;;2.93;;
39540;SDS011;25219;52.244;21.006;2023-07-24T12:01:22;5.53;;;2.88;;
39540;SDS011;25219;52.244;21.006;2023-07-24T12:03:47;5.10;;;2.72;;
39540;SDS011;25219;52.244;21.006;2023-07-24T12:06:15;3.58;;;3.00;;
39540;SDS011;25219;52.244;21.006;2023-07-24T12:08:41;29.60;;;5.05;;
39540;SDS011;25219;52.244;21.006;2023-07-24T12:11:15;6.70;;;3.80;;
39540;SDS011;25219;52.244;21.006;2023-07-24T12:13:40;6.13;;;2.65;;
39540;SDS011;25219;52.244;21.006;2023-07-24T12:16:05;7.30;;;2.73;;
39540;SDS011;25219;52.244;21.006;2023-07-24T12:18:31;5.00;;;2.53;;
39540;SDS011;25219;52.244;21.006;2023-07-24T12:20:56;7.43;;;2.87;;
39540;SDS011;25219;52.244;21.006;2023-07-24T12:23:21;5.27;;;3.27;;
39540;SDS011;25219;52.244;21.006;2023-07-24T12:25:47;7.53;;;3.57;;
39540;SDS011;25219;52.244;21.006;2023-07-24T12:28:12;6.63;;;3.13;;
39540;SDS011;25219;52.244;21.006;2023-07-24T12:30:37;6.60;;;3.07;;
39540;SDS011;25219;52.244;21.006;2023-07-24T12:33:02;5.13;;;2.20;;
39540;SDS011;25219;52.244;21.006;2023-07-24T12:35:27;4.70;;;2.57;;
39540;SDS011;25219;52.244;21.006;2023-07-24T12:37:53;4.17;;;2.70;;
39540;SDS011;25219;52.244;21.006;2023-07-24T12:40:18;9.13;;;3.30;;
39540;SDS011;25219;52.244;21.006;2023-07-24T12:42:43;5.20;;;2.67;;
39540;SDS011;25219;52.244;21.006;2023-07-24T12:45:08;10.00;;;2.60;;
39540;SDS011;25219;52.244;21.006;2023-07-24T12:47:33;2.77;;;2.47;;
39540;SDS011;25219;52.244;21.006;2023-07-24T12:49:59;4.73;;;2.80;;
39540;SDS011;25219;52.244;21.006;2023-07-24T12:52:25;12.70;;;4.28;;
39540;SDS011;25219;52.244;21.006;2023-07-24T12:54:50;17.73;;;3.22;;
39540;SDS011;25219;52.244;21.006;2023-07-24T12:57:15;3.80;;;2.73;;
39540;SDS011;25219;52.244;21.006;2023-07-24T12:59:41;4.07;;;2.70;;
39540;SDS011;25219;52.244;21.006;2023-07-24T13:02:06;5.43;;;3.05;;
39540;SDS011;25219;52.244;21.006;2023-07-24T13:04:31;3.87;;;2.47;;
39540;SDS011;25219;52.244;21.006;2023-07-24T13:06:56;5.15;;;2.53;;
39540;SDS011;25219;52.244;21.006;2023-07-24T13:09:24;4.10;;;2.60;;
39540;SDS011;25219;52.244;21.006;2023-07-24T13:11:49;11.87;;;2.60;;
39540;SDS011;25219;52.244;21.006;2023-07-24T13:14:16;4.35;;;2.40;;
39540;SDS011;25219;52.244;21.006;2023-07-24T13:16:41;5.60;;;2.70;;
39540;SDS011;25219;52.244;21.006;2023-07-24T13:19:06;6.23;;;2.83;;
39540;SDS011;25219;52.244;21.006;2023-07-24T13:21:31;5.93;;;2.80;;
39540;SDS011;25219;52.244;21.006;2023-07-24T13:23:57;5.68;;;2.63;;
39540;SDS011;25219;52.244;21.006;2023-07-24T13:26:22;6.85;;;3.00;;
39540;SDS011;25219;52.244;21.006;2023-07-24T13:28:47;4.20;;;2.58;;
39540;SDS011;25219;52.244;21.006;2023-07-24T13:31:19;5.33;;;2.77;;
39540;SDS011;25219;52.244;21.006;2023-07-24T13:33:44;7.05;;;2.92;;
39540;SDS011;25219;52.244;21.006;2023-07-24T13:36:10;6.67;;;2.93;;
39540;SDS011;25219;52.244;21.006;2023-07-24T13:38:35;5.40;;;2.77;;
39540;SDS011;25219;52.244;21.006;2023-07-24T13:41:00;6.32;;;3.13;;
39540;SDS011;25219;52.244;21.006;2023-07-24T13:43:26;7.18;;;3.30;;
39540;SDS011;25219;52.244;21.006;2023-07-24T13:45:51;3.93;;;2.70;;
39540;SDS011;25219;52.244;21.006;2023-07-24T13:48:16;7.10;;;3.13;;
39540;SDS011;25219;52.244;21.006;2023-07-24T13:50:42;5.97;;;2.83;;
39540;SDS011;25219;52.244;21.006;2023-07-24T13:53:07;5.53;;;2.63;;
39540;SDS011;25219;52.244;21.006;2023-07-24T13:55:33;5.47;;;3.10;;
39540;SDS011;25219;52.244;21.006;2023-07-24T13:57:58;7.00;;;2.77;;
39540;SDS011;25219;52.244;21.006;2023-07-24T14:00:23;9.20;;;3.58;;
39540;SDS011;25219;52.244;21.006;2023-07-24T14:02:48;8.27;;;3.07;;
39540;SDS011;25219;52.244;21.006;2023-07-24T14:05:13;6.27;;;2.70;;
39540;SDS011;25219;52.244;21.006;2023-07-24T14:07:39;5.28;;;3.15;;
39540;SDS011;25219;52.244;21.006;2023-07-24T14:10:05;6.80;;;2.87;;
39540;SDS011;25219;52.244;21.006;2023-07-24T14:12:30;10.77;;;5.68;;
39540;SDS011;25219;52.244;21.006;2023-07-24T14:14:55;7.80;;;3.42;;
39540;SDS011;25219;52.244;21.006;2023-07-24T14:17:20;7.87;;;3.10;;
39540;SDS011;25219;52.244;21.006;2023-07-24T14:19:45;7.27;;;3.03;;
39540;SDS011;25219;52.244;21.006;2023-07-24T14:22:11;6.77;;;3.13;;
39540;SDS011;25219;52.244;21.006;2023-07-24T14:24:36;6.32;;;2.85;;
39540;SDS011;25219;52.244;21.006;2023-07-24T14:27:01;4.90;;;3.17;;
39540;SDS011;25219;52.244;21.006;2023-07-24T14:29:26;3.67;;;2.83;;
39540;SDS011;25219;52.244;21.006;2023-07-24T14:31:51;4.87;;;3.27;;